Latest Weather Observations for Lord Howe Island

IDN60801

Issued at 2:33 am EDT Saturday 28 March 2015 (issued every 30 minutes, with the page automatically refreshed every 10 minutes)

About weather observations | Map of weather stations | Latest weather observations for NSW | Other Formats
Station Details ID: 200839 Name: LORD HOWE ISLAND AERO Lat: -31.54 Lon: 159.08 Height: 5.0 m
Data from the previous 72 hours. | See also: Recent months at Lord Howe Island
Date/Time
EDT
Temp
°C
App
Temp
°C
Dew
Point
Rel
Hum
%
Delta-T
°C
Wind Press
QNH
hPa
Press
MSL
hPa
Rain
since 9 am
mm
Dir
 
Spd
km/h
Gust
km/h
Spd
kts
Gust
kts
28/02:30am 22.5 21.2 16.9 70 3.4 SW 19 28 10 15 1017.3 - 1.2
28/02:00am 22.6 21.8 17.1 71 3.4 SW 17 24 9 13 1017.6 - 1.2
28/01:30am 22.9 22.1 17.2 70 3.5 SW 17 28 9 15 1017.8 - 1.2
28/01:00am 23.0 22.8 17.5 71 3.4 SW 15 22 8 12 1017.9 - 1.2
28/12:30am 22.5 23.4 17.5 73 3.1 SSW 9 15 5 8 1017.9 - 1.2
28/12:00am 22.8 23.0 17.6 72 3.2 SSW 13 24 7 13 1018.0 1018.0 1.2
 
Date/Time
EDT
Temp
°C
App
Temp
°C
Dew
Point
Rel
Hum
%
Delta-T
°C
Wind Press
QNH
hPa
Press
MSL
hPa
Rain
since 9 am
mm
Dir
 
Spd
km/h
Gust
km/h
Spd
kts
Gust
kts
27/11:30pm 22.4 23.3 17.5 74 3.0 SSW 9 13 5 7 1017.9 - 1.2
27/11:00pm 22.3 23.8 18.0 76 2.7 SSW 7 15 4 8 1017.9 - 1.2
27/10:30pm 21.0 24.4 19.4 90 1.0 CALM 0 0 0 0 1018.0 - 1.2
27/10:00pm 20.4 23.7 19.0 92 0.9 CALM 0 0 0 0 1018.0 - 1.2
27/09:30pm 21.6 24.2 19.2 86 1.5 SE 4 7 2 4 1018.0 - 1.2
27/09:00pm 22.0 25.3 20.0 88 1.3 S 2 9 1 5 1018.1 1018.1 1.2
27/08:30pm 22.1 25.5 20.2 89 1.2 SSE 2 7 1 4 1017.8 - 1.2
27/08:00pm 22.5 24.3 20.3 87 1.4 SSW 11 17 6 9 1017.7 - 1.2
27/07:32pm 22.1 24.1 20.7 92 0.9 SSW 11 17 6 9 1017.4 - 1.2
27/07:30pm 22.0 23.9 20.6 92 0.9 SSW 11 17 6 9 1017.4 - 1.2
27/07:22pm 22.1 23.3 20.7 92 0.9 SW 15 20 8 11 1017.4 - 1.2
27/07:09pm 22.4 22.6 21.3 93 0.7 WSW 22 32 12 17 1017.3 - 1.2
27/07:00pm 22.7 23.1 20.9 89 1.2 SW 20 26 11 14 1017.2 - 1.0
27/06:52pm 22.5 21.3 20.8 90 1.1 W 28 37 15 20 1017.1 - 1.0
27/06:49pm 22.7 21.3 21.2 91 1.0 W 30 37 16 20 1017.1 - 1.0
27/06:42pm 23.5 24.1 20.3 82 2.1 SW 17 24 9 13 1016.9 - 1.0
27/06:30pm 23.5 24.0 20.1 81 2.2 SW 17 22 9 12 1016.6 - 1.0
27/06:28pm 23.5 24.1 20.3 82 2.1 SW 17 24 9 13 1016.6 - 1.0
27/06:00pm 23.6 23.4 20.5 83 2.0 SW 22 32 12 17 1016.5 1016.5 1.0
27/05:36pm 23.3 24.4 21.2 88 1.4 SW 17 24 9 13 1016.4 - 1.0
27/05:30pm 23.2 23.8 21.1 88 1.4 SW 19 26 10 14 1016.4 - 1.0
27/05:15pm 23.2 23.9 21.2 88 1.3 SW 19 28 10 15 1016.3 - 1.0
27/05:12pm 23.1 23.9 21.3 90 1.2 SW 19 28 10 15 1016.3 - 1.0
27/05:00pm 22.8 22.1 21.1 90 1.1 WSW 26 37 14 20 1016.3 - 1.0
27/04:52pm 22.9 21.9 21.2 90 1.1 W 28 35 15 19 1016.4 - 0.6
27/04:30pm 23.9 23.5 21.0 84 1.9 SW 24 35 13 19 1016.1 - 0.4
27/04:11pm 23.6 23.5 20.8 84 1.8 SW 22 35 12 19 1016.2 - 0.4
27/04:00pm 23.8 23.6 21.2 85 1.7 WSW 24 32 13 17 1016.2 - 0.4
27/03:30pm 23.6 22.9 21.8 90 1.2 W 28 37 15 20 1016.0 - 0.4
27/03:14pm 23.8 24.1 21.5 87 1.5 W 22 30 12 16 1016.4 - 0.4
27/03:00pm 23.3 23.6 20.8 86 1.6 WNW 20 30 11 16 1016.6 1016.6 0.4
27/02:30pm 24.3 24.7 22.4 89 1.3 W 24 30 13 16 1016.6 - 0.2
27/02:16pm 24.3 25.2 22.7 91 1.1 W 22 28 12 15 1016.7 - 0.2
27/02:00pm 24.2 26.4 22.6 91 1.1 W 15 28 8 15 1017.0 - 0.2
27/01:56pm 24.1 27.3 22.3 90 1.2 WNW 9 19 5 10 1016.6 - 0.2
27/01:30pm 24.5 25.8 22.3 87 1.5 W 19 26 10 14 1017.1 - 0.0
27/01:19pm 24.6 25.9 22.4 87 1.5 W 19 24 10 13 1017.3 - 0.0
27/01:00pm 24.7 27.2 21.8 84 1.9 NW 11 26 6 14 1016.8 - 0.0
27/12:30pm 24.9 24.3 21.9 83 2.0 NNE 28 41 15 22 1015.3 - 0.0
27/12:20pm 25.0 27.6 22.0 83 2.0 NW 11 19 6 10 1017.4 - 0.0
27/12:00pm 25.1 27.6 22.4 85 1.8 WNW 13 19 7 10 1018.5 1018.5 0.0
27/11:59am 25.2 27.7 22.4 84 1.9 WNW 13 19 7 10 1018.5 - 0.0
27/11:30am 25.3 27.6 22.0 82 2.2 WNW 13 19 7 10 1018.7 - 0.0
27/11:00am 25.4 27.6 21.8 80 2.4 WNW 13 20 7 11 1018.4 - 0.0
27/10:30am 25.7 27.9 21.9 79 2.5 WNW 13 17 7 9 1018.8 - 0.0
27/10:00am 25.5 27.5 21.6 79 2.6 WNW 13 22 7 12 1018.7 - 0.0
27/09:30am 25.4 27.9 21.8 80 2.4 WNW 11 17 6 9 1018.6 - 0.0
27/09:00am 24.7 27.5 21.5 82 2.1 WNW 9 17 5 9 1018.5 1018.5 0.0
27/08:38am 24.8 27.6 21.6 82 2.1 NW 9 15 5 8 1018.4 - 0.0
27/08:30am 24.7 27.3 22.0 85 1.8 NW 11 17 6 9 1018.5 - 0.0
27/08:00am 24.9 27.9 21.9 83 2.0 NNE 9 17 5 9 1018.4 - 0.0
27/07:30am 24.3 27.4 21.4 84 1.9 N 7 15 4 8 1018.1 - 0.0
27/07:13am 24.1 27.0 21.0 83 2.0 N 7 13 4 7 1018.0 - 0.0
27/07:00am 23.9 26.7 20.8 83 2.0 N 7 15 4 8 1018.0 - 0.0
27/06:30am 23.5 24.9 20.4 83 2.0 NNE 13 19 7 10 1017.8 - 0.0
27/06:16am 23.6 25.0 20.4 82 2.1 NNE 13 19 7 10 1017.8 - 0.0
27/06:00am 23.7 25.8 20.1 80 2.3 NNE 9 9 5 5 1017.6 1017.6 0.0
27/05:36am 23.7 25.7 20.0 80 2.4 NNE 9 15 5 8 1017.6 - 0.0
27/05:30am 23.6 25.2 19.9 80 2.4 N 11 15 6 8 1017.5 - 0.0
27/05:00am 23.6 24.6 19.4 77 2.7 N 13 19 7 10 1017.3 - 0.0
27/04:30am 23.5 24.0 18.4 73 3.2 N 13 20 7 11 1017.3 - 0.0
27/04:00am 23.5 24.8 18.4 73 3.2 NNE 9 15 5 8 1017.4 - 0.0
27/03:30am 23.5 24.6 18.8 75 3.0 NNE 11 19 6 10 1017.6 - 0.0
27/03:00am 23.3 23.5 18.5 74 3.0 NNE 15 19 8 10 1017.8 1017.8 0.0
27/02:30am 23.3 23.3 18.2 73 3.2 NNE 15 19 8 10 1018.0 - 0.0
27/02:00am 23.2 22.7 17.9 72 3.3 NE 17 20 9 11 1018.2 - 0.0
27/01:30am 23.0 22.2 17.9 73 3.2 NE 19 22 10 12 1018.4 - 0.0
27/01:00am 22.8 22.4 18.0 74 3.0 NE 17 20 9 11 1018.7 - 0.0
27/12:30am 22.6 22.5 17.8 74 3.0 NE 15 19 8 10 1018.9 - 0.0
27/12:00am 22.7 22.4 17.3 71 3.3 NE 15 19 8 10 1019.1 1019.1 0.0
 
Date/Time
EDT
Temp
°C
App
Temp
°C
Dew
Point
Rel
Hum
%
Delta-T
°C
Wind Press
QNH
hPa
Press
MSL
hPa
Rain
since 9 am
mm
Dir
 
Spd
km/h
Gust
km/h
Spd
kts
Gust
kts
26/11:30pm 22.6 22.7 17.4 72 3.2 NE 13 19 7 10 1019.3 - 0.0
26/11:00pm 22.5 22.3 16.8 70 3.5 NE 13 17 7 9 1019.6 - 0.0
26/10:30pm 22.3 22.0 16.5 69 3.5 NE 13 17 7 9 1019.5 - 0.0
26/10:00pm 20.2 20.8 16.7 80 2.1 NE 9 11 5 6 1019.7 - 0.0
26/09:30pm 20.8 21.8 16.8 78 2.4 ENE 7 11 4 6 1019.7 - 0.0
26/09:00pm 21.8 21.8 16.3 71 3.3 ENE 11 13 6 7 1019.6 1019.6 0.0
26/08:30pm 21.2 22.7 16.7 75 2.7 NE 4 7 2 4 1019.7 - 0.0
26/08:00pm 21.4 22.3 16.6 74 2.9 E 7 9 4 5 1019.4 - 0.0
26/07:30pm 21.6 23.0 16.5 73 3.1 ESE 4 9 2 5 1019.1 - 0.0
26/07:00pm 22.7 23.6 16.1 66 4.0 SE 6 7 3 4 1019.0 - 0.0
26/06:30pm 22.3 23.4 16.5 69 3.5 ESE 6 7 3 4 1018.8 - 0.0
26/06:00pm 23.1 23.9 16.3 65 4.1 E 7 9 4 5 1018.7 1018.7 0.0
26/05:30pm 23.6 24.2 15.8 61 4.7 E 7 11 4 6 1018.4 - 0.0
26/05:00pm 24.4 24.6 15.8 58 5.2 E 9 11 5 6 1018.4 - 0.0
26/04:30pm 24.2 24.6 15.4 58 5.3 E 7 9 4 5 1018.4 - 0.0
26/04:00pm 24.9 25.2 16.0 57 5.4 E 9 13 5 7 1018.4 - 0.0
26/03:30pm 24.3 24.8 15.5 58 5.3 WSW 7 9 4 5 1018.5 - 0.0
26/03:00pm 24.3 24.4 15.5 58 5.3 WSW 9 11 5 6 1018.7 1018.7 0.0
26/02:30pm 24.9 25.0 15.4 55 5.7 WSW 9 15 5 8 1018.9 - 0.0
26/02:00pm 25.2 25.5 16.0 56 5.6 WSW 9 13 5 7 1019.1 - 0.0
26/01:30pm 25.0 24.9 16.1 57 5.4 WSW 11 15 6 8 1019.2 - 0.0
26/01:00pm 25.0 24.6 16.1 57 5.4 WSW 13 17 7 9 1019.5 - 0.0
26/12:30pm 24.9 24.9 16.2 58 5.3 WSW 11 15 6 8 1019.8 - 0.0
26/12:00pm 25.0 24.9 16.1 57 5.4 WSW 11 15 6 8 1019.9 1019.9 0.0
26/11:30am 24.6 24.9 16.0 58 5.2 SW 9 13 5 7 1020.0 - 0.0
26/11:00am 24.6 24.9 16.0 58 5.2 WSW 9 13 5 7 1020.0 - 0.0
26/10:30am 24.5 24.8 16.1 59 5.1 WSW 9 13 5 7 1020.1 - 0.0
26/10:00am 24.2 24.3 15.6 58 5.2 WSW 9 13 5 7 1019.9 - 0.0
26/09:30am 24.1 24.2 15.6 59 5.1 WSW 9 13 5 7 1020.0 - 0.0
26/09:00am 23.7 24.3 15.7 61 4.8 SW 7 11 4 6 1019.7 1019.7 0.0
26/08:30am 22.7 23.3 15.7 64 4.2 SSW 7 7 4 4 1019.6 - 0.0
26/08:00am 21.8 22.4 15.8 68 3.6 SSW 7 9 4 5 1019.4 - 0.0
26/07:30am 20.1 21.1 16.4 79 2.2 S 6 7 3 4 1019.2 - 0.0
26/07:00am 19.2 20.3 15.6 79 2.1 SE 4 7 2 4 1018.9 - 0.0
26/06:30am 20.9 21.2 14.9 68 3.5 SSW 7 11 4 6 1018.8 - 0.0
26/06:00am 19.9 21.5 16.0 78 2.3 S 2 7 1 4 1018.6 1018.6 0.0
26/05:30am 20.5 21.4 16.2 76 2.6 S 6 9 3 5 1018.3 - 0.0
26/05:00am 19.6 21.9 16.8 84 1.7 CALM 0 0 0 0 1018.2 - 0.0
26/04:30am 19.3 21.1 15.6 79 2.2 CALM 0 7 0 4 1017.9 - 0.0
26/04:00am 18.8 20.0 15.0 78 2.2 SSE 2 6 1 3 1017.7 - 0.0
26/03:30am 19.2 19.4 14.7 75 2.6 S 7 13 4 7 1017.5 - 0.0
26/03:00am 20.2 21.3 14.5 69 3.3 SSW 2 7 1 4 1017.5 1017.5 0.0
26/02:30am 21.1 21.5 15.2 69 3.5 S 7 13 4 7 1017.6 - 0.0
26/02:00am 20.3 21.6 15.2 72 3.0 SE 2 7 1 4 1017.9 - 0.0
26/01:30am 21.3 21.9 15.4 69 3.5 S 6 11 3 6 1017.9 - 0.0
26/01:00am 20.8 21.8 16.3 75 2.7 S 6 7 3 4 1018.0 - 0.0
26/12:30am 21.9 22.3 16.4 71 3.3 SSW 9 13 5 7 1018.0 - 0.0
26/12:00am 22.4 22.6 16.8 70 3.4 SSW 11 15 6 8 1017.9 1017.9 0.0
 
Date/Time
EDT
Temp
°C
App
Temp
°C
Dew
Point
Rel
Hum
%
Delta-T
°C
Wind Press
QNH
hPa
Press
MSL
hPa
Rain
since 9 am
mm
Dir
 
Spd
km/h
Gust
km/h
Spd
kts
Gust
kts
25/11:30pm 21.9 23.8 17.7 77 2.6 SSE 4 7 2 4 1017.8 - 0.0
25/11:00pm 22.9 24.0 18.1 74 3.0 SSW 9 22 5 12 1017.8 - 0.0
25/10:30pm 22.7 23.5 18.2 76 2.8 SSW 11 20 6 11 1017.6 - 0.0
25/10:00pm 23.1 23.7 18.7 76 2.8 SSW 13 20 7 11 1017.6 - 0.0
25/09:30pm 23.2 23.3 17.4 70 3.6 SSW 13 20 7 11 1017.4 - 0.0
25/09:00pm 23.1 23.1 17.3 70 3.6 SSW 13 17 7 9 1017.1 1017.1 0.0
25/08:30pm 23.3 23.6 18.0 72 3.3 SSW 13 19 7 10 1016.7 - 0.0
25/08:06pm 23.4 24.5 19.7 80 2.4 SSW 13 20 7 11 1016.4 - 0.0
25/08:00pm 23.6 24.7 19.7 79 2.5 SSW 13 20 7 11 1016.3 - 0.0
25/07:49pm 23.5 24.3 19.8 80 2.4 SSW 15 22 8 12 1016.0 - 0.0
25/07:30pm 23.7 24.9 20.0 80 2.4 SW 13 19 7 10 1015.9 - 0.0
25/07:00pm 23.9 24.6 20.5 81 2.2 SSW 17 32 9 17 1015.4 - 0.0
25/06:42pm 24.2 26.2 21.6 85 1.7 SW 13 20 7 11 1015.1 - 0.0
25/06:30pm 24.2 25.9 21.6 85 1.7 SW 15 22 8 12 1014.9 - 0.0
25/06:00pm 24.3 25.9 22.2 88 1.4 W 17 24 9 13 1014.7 1014.7 0.0
25/05:59pm 24.3 25.9 22.2 88 1.4 W 17 24 9 13 1014.7 - 0.0
25/05:30pm 24.6 25.7 21.9 85 1.8 WNW 19 32 10 17 1014.4 - 0.0
25/05:00pm 24.9 24.9 21.7 82 2.1 W 24 35 13 19 1014.2 - 0.0
25/04:30pm 25.6 26.6 21.7 79 2.6 WNW 19 30 10 16 1013.8 - 0.0
25/04:00pm 25.0 24.9 20.7 77 2.8 NNW 22 37 12 20 1013.9 - 0.0
25/03:30pm 25.2 26.3 21.3 79 2.6 NNW 17 35 9 19 1013.9 - 0.0
25/03:25pm 25.2 26.2 21.1 78 2.7 N 17 35 9 19 1013.9 - 0.0
25/03:00pm 25.5 26.8 20.9 75 3.0 NW 15 28 8 15 1014.1 1014.1 0.0
25/02:30pm 25.8 26.1 20.8 74 3.3 NW 20 28 11 15 1014.2 - 0.0
25/02:00pm 26.2 27.0 20.7 71 3.6 NW 17 33 9 18 1014.6 - 0.0
25/01:30pm 26.3 27.1 20.7 71 3.7 NW 17 30 9 16 1014.5 - 0.0
25/01:00pm 26.2 27.0 20.6 71 3.7 NW 17 33 9 18 1015.0 - 0.0
25/12:30pm 26.0 26.8 20.7 72 3.5 NW 17 32 9 17 1015.5 - 0.0
25/12:00pm 25.3 26.0 20.4 74 3.2 WNW 17 35 9 19 1016.1 1016.1 0.0
25/11:30am 25.8 25.8 19.8 69 3.9 NW 19 35 10 19 1016.2 - 0.0
25/11:00am 25.7 25.2 20.0 71 3.7 NW 22 43 12 23 1015.9 - 0.0
25/10:30am 26.1 26.1 20.1 69 3.9 NW 20 48 11 26 1015.8 - 0.0
25/10:00am 26.2 26.1 19.9 68 4.1 NW 20 43 11 23 1015.6 - 0.0
25/09:30am 26.3 26.7 19.8 67 4.2 NNW 17 33 9 18 1015.5 - 0.0
25/09:00am 25.0 24.3 19.6 72 3.5 N 22 33 12 18 1015.6 1015.6 5.6
25/08:30am 24.7 25.0 20.4 77 2.8 NW 19 22 10 12 1015.1 - 5.6
25/08:00am 24.9 25.4 20.0 74 3.2 N 17 33 9 18 1014.9 - 5.6
25/07:30am 24.7 26.3 20.7 78 2.6 N 13 20 7 11 1014.9 - 5.6
25/07:00am 24.2 25.1 20.0 77 2.7 N 15 30 8 16 1014.6 - 5.6
25/06:30am 24.1 24.3 19.4 75 3.0 NNW 17 30 9 16 1014.3 - 5.6
25/06:00am 24.1 25.8 20.1 78 2.6 NW 11 33 6 18 1014.2 1014.2 5.6
25/05:49am 24.0 24.8 20.6 81 2.2 N 17 28 9 15 1013.6 - 5.6
25/05:34am 24.0 25.4 20.3 80 2.4 NNE 13 26 7 14 1013.4 - 5.6
25/05:32am 23.9 25.8 20.5 81 2.2 NNE 11 28 6 15 1013.4 - 5.6
25/05:30am 23.9 25.9 20.7 82 2.1 NNE 11 28 6 15 1013.4 - 5.6
25/05:18am 24.0 24.6 20.3 80 2.4 N 17 28 9 15 1013.2 - 5.6
25/05:00am 24.0 25.3 20.8 82 2.1 N 15 28 8 15 1013.3 - 5.6
25/04:31am 24.0 24.3 20.5 81 2.3 N 19 30 10 16 1013.3 - 5.6
25/04:30am 24.0 24.2 20.5 81 2.3 NNE 20 30 11 16 1013.3 - 5.6
25/04:28am 24.1 23.8 20.4 80 2.4 N 22 37 12 20 1013.3 - 5.6
25/04:00am 24.0 24.9 20.8 82 2.1 N 17 32 9 17 1013.3 - 5.6
25/03:53am 23.9 25.0 21.2 85 1.8 N 17 30 9 16 1013.3 - 5.6
25/03:51am 24.0 25.0 21.1 84 1.9 N 17 32 9 17 1013.4 - 5.6
25/03:30am 23.9 24.2 20.7 82 2.1 N 20 35 11 19 1013.8 - 5.6
25/03:12am 23.7 24.8 20.5 82 2.1 NNE 15 30 8 16 1014.4 - 5.6
25/03:00am 23.8 24.0 20.6 82 2.1 N 20 41 11 22 1014.3 1014.3 5.6
25/02:59am 23.8 24.0 20.6 82 2.1 N 20 41 11 22 1014.3 - 5.6
25/02:48am 23.7 24.0 20.5 82 2.1 N 19 33 10 18 1014.3 - 5.6

Other Formats:

Comma delimited format used in spreadsheet applications
http://www.bom.gov.au/fwo/IDN60801/IDN60801.94995.axf

JavaScript Object Notation format (JSON) in row-major order
http://www.bom.gov.au/fwo/IDN60801/IDN60801.94995.json